sensor_id;sensor_type;location;lat;lon;timestamp;temperature;humidity
45060;DHT22;30799;49.060;9.312;2022-11-20T00:00:06;21.70;67.80
45060;DHT22;30799;49.060;9.312;2022-11-20T00:02:33;21.70;67.90
45060;DHT22;30799;49.060;9.312;2022-11-20T00:05:00;21.70;67.80
45060;DHT22;30799;49.060;9.312;2022-11-20T00:07:26;21.70;67.80
45060;DHT22;30799;49.060;9.312;2022-11-20T00:09:53;21.70;67.90
45060;DHT22;30799;49.060;9.312;2022-11-20T00:12:20;21.70;67.90
45060;DHT22;30799;49.060;9.312;2022-11-20T00:14:46;21.70;67.90
45060;DHT22;30799;49.060;9.312;2022-11-20T00:17:13;21.70;68.00
45060;DHT22;30799;49.060;9.312;2022-11-20T00:19:40;21.60;68.00
45060;DHT22;30799;49.060;9.312;2022-11-20T00:22:06;21.70;67.90
45060;DHT22;30799;49.060;9.312;2022-11-20T00:24:33;21.70;67.80
45060;DHT22;30799;49.060;9.312;2022-11-20T00:27:05;21.70;67.80
45060;DHT22;30799;49.060;9.312;2022-11-20T00:29:32;21.70;68.10
45060;DHT22;30799;49.060;9.312;2022-11-20T00:31:58;21.70;68.20
45060;DHT22;30799;49.060;9.312;2022-11-20T00:34:25;21.70;68.30
45060;DHT22;30799;49.060;9.312;2022-11-20T00:36:51;21.70;68.30
45060;DHT22;30799;49.060;9.312;2022-11-20T00:39:18;21.70;68.20
45060;DHT22;30799;49.060;9.312;2022-11-20T00:41:45;21.70;68.30
45060;DHT22;30799;49.060;9.312;2022-11-20T00:44:12;21.70;68.30
45060;DHT22;30799;49.060;9.312;2022-11-20T00:46:38;21.70;68.20
45060;DHT22;30799;49.060;9.312;2022-11-20T00:49:05;21.70;68.30
45060;DHT22;30799;49.060;9.312;2022-11-20T00:51:31;21.60;68.20
45060;DHT22;30799;49.060;9.312;2022-11-20T00:53:58;21.60;68.10
45060;DHT22;30799;49.060;9.312;2022-11-20T00:56:26;21.60;68.10
45060;DHT22;30799;49.060;9.312;2022-11-20T00:58:53;21.70;68.20
45060;DHT22;30799;49.060;9.312;2022-11-20T01:01:23;21.60;68.20
45060;DHT22;30799;49.060;9.312;2022-11-20T01:03:56;21.60;68.20
45060;DHT22;30799;49.060;9.312;2022-11-20T01:06:24;21.60;68.30
45060;DHT22;30799;49.060;9.312;2022-11-20T01:08:52;21.60;68.10
45060;DHT22;30799;49.060;9.312;2022-11-20T01:11:23;21.60;68.20
45060;DHT22;30799;49.060;9.312;2022-11-20T01:17:17;21.60;68.20
45060;DHT22;30799;49.060;9.312;2022-11-20T01:19:43;21.60;68.20
45060;DHT22;30799;49.060;9.312;2022-11-20T01:22:10;21.60;68.20
45060;DHT22;30799;49.060;9.312;2022-11-20T01:24:36;21.60;68.30
45060;DHT22;30799;49.060;9.312;2022-11-20T01:27:03;21.60;68.30
45060;DHT22;30799;49.060;9.312;2022-11-20T01:29:30;21.60;68.30
45060;DHT22;30799;49.060;9.312;2022-11-20T01:31:56;21.70;68.30
45060;DHT22;30799;49.060;9.312;2022-11-20T01:34:23;21.50;68.20
45060;DHT22;30799;49.060;9.312;2022-11-20T01:36:50;21.50;68.20
45060;DHT22;30799;49.060;9.312;2022-11-20T01:39:20;21.60;68.30
45060;DHT22;30799;49.060;9.312;2022-11-20T01:41:48;21.60;68.30
45060;DHT22;30799;49.060;9.312;2022-11-20T01:44:49;21.50;68.20
45060;DHT22;30799;49.060;9.312;2022-11-20T01:47:27;21.60;68.30
45060;DHT22;30799;49.060;9.312;2022-11-20T01:49:58;21.60;68.30
45060;DHT22;30799;49.060;9.312;2022-11-20T01:52:36;21.50;68.20
45060;DHT22;30799;49.060;9.312;2022-11-20T01:55:24;21.60;68.30
45060;DHT22;30799;49.060;9.312;2022-11-20T01:57:51;21.50;68.20
45060;DHT22;30799;49.060;9.312;2022-11-20T02:00:18;21.50;68.20
45060;DHT22;30799;49.060;9.312;2022-11-20T02:02:48;21.50;68.20
45060;DHT22;30799;49.060;9.312;2022-11-20T02:05:29;21.50;68.20
45060;DHT22;30799;49.060;9.312;2022-11-20T02:07:57;21.50;68.20
45060;DHT22;30799;49.060;9.312;2022-11-20T02:10:24;21.50;68.20
45060;DHT22;30799;49.060;9.312;2022-11-20T02:12:51;21.50;68.20
45060;DHT22;30799;49.060;9.312;2022-11-20T02:15:37;21.50;68.20
45060;DHT22;30799;49.060;9.312;2022-11-20T02:18:03;21.50;68.20
45060;DHT22;30799;49.060;9.312;2022-11-20T02:20:30;21.50;68.20
45060;DHT22;30799;49.060;9.312;2022-11-20T02:23:03;21.50;68.20
45060;DHT22;30799;49.060;9.312;2022-11-20T02:25:31;21.50;68.20
45060;DHT22;30799;49.060;9.312;2022-11-20T02:27:59;21.50;68.20
45060;DHT22;30799;49.060;9.312;2022-11-20T02:30:25;21.50;68.30
45060;DHT22;30799;49.060;9.312;2022-11-20T02:32:52;21.50;68.20
45060;DHT22;30799;49.060;9.312;2022-11-20T02:37:48;21.50;68.20
45060;DHT22;30799;49.060;9.312;2022-11-20T02:40:16;21.50;68.20
45060;DHT22;30799;49.060;9.312;2022-11-20T02:42:43;21.50;68.20
45060;DHT22;30799;49.060;9.312;2022-11-20T02:45:10;21.50;68.20
45060;DHT22;30799;49.060;9.312;2022-11-20T02:47:36;21.50;68.30
45060;DHT22;30799;49.060;9.312;2022-11-20T02:50:03;21.50;68.30
45060;DHT22;30799;49.060;9.312;2022-11-20T02:52:30;21.40;68.20
45060;DHT22;30799;49.060;9.312;2022-11-20T02:54:57;21.50;68.30
45060;DHT22;30799;49.060;9.312;2022-11-20T02:57:24;21.40;68.30
45060;DHT22;30799;49.060;9.312;2022-11-20T02:59:50;21.40;68.20
45060;DHT22;30799;49.060;9.312;2022-11-20T03:02:17;21.40;68.30
45060;DHT22;30799;49.060;9.312;2022-11-20T03:04:43;21.40;68.30
45060;DHT22;30799;49.060;9.312;2022-11-20T03:07:10;21.40;68.30
45060;DHT22;30799;49.060;9.312;2022-11-20T03:09:37;22.20;68.80
45060;DHT22;30799;49.060;9.312;2022-11-20T03:12:04;21.40;68.30
45060;DHT22;30799;49.060;9.312;2022-11-20T03:14:30;21.40;68.40
45060;DHT22;30799;49.060;9.312;2022-11-20T03:16:57;21.40;68.40
45060;DHT22;30799;49.060;9.312;2022-11-20T03:19:23;21.40;68.30
45060;DHT22;30799;49.060;9.312;2022-11-20T03:21:50;21.40;68.30
45060;DHT22;30799;49.060;9.312;2022-11-20T03:24:17;21.40;68.40
45060;DHT22;30799;49.060;9.312;2022-11-20T03:26:43;21.40;68.40
45060;DHT22;30799;49.060;9.312;2022-11-20T03:29:10;21.40;68.40
45060;DHT22;30799;49.060;9.312;2022-11-20T03:31:38;21.40;68.40
45060;DHT22;30799;49.060;9.312;2022-11-20T03:34:07;21.40;68.40
45060;DHT22;30799;49.060;9.312;2022-11-20T03:36:34;21.40;68.40
45060;DHT22;30799;49.060;9.312;2022-11-20T03:39:00;21.40;68.40
45060;DHT22;30799;49.060;9.312;2022-11-20T03:41:28;21.40;68.40
45060;DHT22;30799;49.060;9.312;2022-11-20T03:43:59;21.40;68.40
45060;DHT22;30799;49.060;9.312;2022-11-20T03:46:26;21.40;68.40
45060;DHT22;30799;49.060;9.312;2022-11-20T03:48:53;21.40;68.40
45060;DHT22;30799;49.060;9.312;2022-11-20T03:53:46;21.10;68.20
45060;DHT22;30799;49.060;9.312;2022-11-20T03:56:14;21.30;68.30
45060;DHT22;30799;49.060;9.312;2022-11-20T03:58:41;21.40;68.40
45060;DHT22;30799;49.060;9.312;2022-11-20T04:03:35;21.40;68.40
45060;DHT22;30799;49.060;9.312;2022-11-20T04:06:05;21.40;68.40
45060;DHT22;30799;49.060;9.312;2022-11-20T04:08:32;21.40;68.40
45060;DHT22;30799;49.060;9.312;2022-11-20T04:13:35;21.40;68.40
45060;DHT22;30799;49.060;9.312;2022-11-20T04:16:01;21.40;68.40
45060;DHT22;30799;49.060;9.312;2022-11-20T04:18:28;21.30;68.30
45060;DHT22;30799;49.060;9.312;2022-11-20T04:20:56;21.30;68.30
45060;DHT22;30799;49.060;9.312;2022-11-20T04:23:22;21.30;68.30
45060;DHT22;30799;49.060;9.312;2022-11-20T04:25:54;21.30;68.30
45060;DHT22;30799;49.060;9.312;2022-11-20T04:28:21;21.30;68.30
45060;DHT22;30799;49.060;9.312;2022-11-20T04:30:47;21.30;68.30
45060;DHT22;30799;49.060;9.312;2022-11-20T04:33:14;21.30;68.30
45060;DHT22;30799;49.060;9.312;2022-11-20T04:35:40;21.30;68.30
45060;DHT22;30799;49.060;9.312;2022-11-20T04:38:07;21.30;68.30
45060;DHT22;30799;49.060;9.312;2022-11-20T04:40:34;21.30;68.30
45060;DHT22;30799;49.060;9.312;2022-11-20T04:43:00;21.30;68.30
45060;DHT22;30799;49.060;9.312;2022-11-20T04:45:27;21.30;68.40
45060;DHT22;30799;49.060;9.312;2022-11-20T04:47:53;21.30;68.30
45060;DHT22;30799;49.060;9.312;2022-11-20T04:50:20;21.30;68.30
45060;DHT22;30799;49.060;9.312;2022-11-20T04:52:46;21.30;68.30
45060;DHT22;30799;49.060;9.312;2022-11-20T04:55:13;21.30;68.30
45060;DHT22;30799;49.060;9.312;2022-11-20T04:57:39;21.30;68.40
45060;DHT22;30799;49.060;9.312;2022-11-20T05:00:06;21.30;68.30
45060;DHT22;30799;49.060;9.312;2022-11-20T05:02:33;21.30;68.30
45060;DHT22;30799;49.060;9.312;2022-11-20T05:04:59;21.30;68.30
45060;DHT22;30799;49.060;9.312;2022-11-20T05:07:26;21.30;68.30
45060;DHT22;30799;49.060;9.312;2022-11-20T05:09:53;21.30;68.40
45060;DHT22;30799;49.060;9.312;2022-11-20T05:12:19;21.30;68.40
45060;DHT22;30799;49.060;9.312;2022-11-20T05:14:46;21.30;68.40
45060;DHT22;30799;49.060;9.312;2022-11-20T05:17:13;21.30;68.30
45060;DHT22;30799;49.060;9.312;2022-11-20T05:19:39;21.30;68.30
45060;DHT22;30799;49.060;9.312;2022-11-20T05:22:06;21.30;68.40
45060;DHT22;30799;49.060;9.312;2022-11-20T05:24:32;21.30;68.40
45060;DHT22;30799;49.060;9.312;2022-11-20T05:26:59;21.20;68.40
45060;DHT22;30799;49.060;9.312;2022-11-20T05:29:25;21.30;68.40
45060;DHT22;30799;49.060;9.312;2022-11-20T05:31:52;21.20;68.30
45060;DHT22;30799;49.060;9.312;2022-11-20T05:34:18;21.20;68.40
45060;DHT22;30799;49.060;9.312;2022-11-20T05:36:45;21.30;68.40
45060;DHT22;30799;49.060;9.312;2022-11-20T05:39:12;21.40;68.40
45060;DHT22;30799;49.060;9.312;2022-11-20T05:41:38;21.30;68.40
45060;DHT22;30799;49.060;9.312;2022-11-20T05:44:05;21.20;68.40
45060;DHT22;30799;49.060;9.312;2022-11-20T05:46:31;21.30;68.30
45060;DHT22;30799;49.060;9.312;2022-11-20T05:48:58;21.20;68.20
45060;DHT22;30799;49.060;9.312;2022-11-20T05:51:25;21.20;68.30
45060;DHT22;30799;49.060;9.312;2022-11-20T05:53:52;21.20;68.30
45060;DHT22;30799;49.060;9.312;2022-11-20T05:56:19;21.20;68.30
45060;DHT22;30799;49.060;9.312;2022-11-20T05:58:47;21.20;68.30
45060;DHT22;30799;49.060;9.312;2022-11-20T06:01:17;21.30;68.30
45060;DHT22;30799;49.060;9.312;2022-11-20T06:03:43;21.20;68.30
45060;DHT22;30799;49.060;9.312;2022-11-20T06:06:13;21.20;68.20
45060;DHT22;30799;49.060;9.312;2022-11-20T06:08:40;21.20;68.20
45060;DHT22;30799;49.060;9.312;2022-11-20T06:11:07;21.20;68.20
45060;DHT22;30799;49.060;9.312;2022-11-20T06:13:34;21.20;68.20
45060;DHT22;30799;49.060;9.312;2022-11-20T06:16:07;21.20;68.20
45060;DHT22;30799;49.060;9.312;2022-11-20T06:18:33;21.20;68.20
45060;DHT22;30799;49.060;9.312;2022-11-20T06:21:11;21.20;68.20
45060;DHT22;30799;49.060;9.312;2022-11-20T06:23:38;21.20;68.20
45060;DHT22;30799;49.060;9.312;2022-11-20T06:26:05;21.20;68.20
45060;DHT22;30799;49.060;9.312;2022-11-20T06:28:32;21.20;68.20
45060;DHT22;30799;49.060;9.312;2022-11-20T06:30:59;21.20;68.20
45060;DHT22;30799;49.060;9.312;2022-11-20T06:33:25;21.20;68.10
45060;DHT22;30799;49.060;9.312;2022-11-20T06:35:55;21.20;68.20
45060;DHT22;30799;49.060;9.312;2022-11-20T06:38:27;21.20;68.20
45060;DHT22;30799;49.060;9.312;2022-11-20T06:40:54;21.20;68.20
45060;DHT22;30799;49.060;9.312;2022-11-20T06:43:21;21.20;68.20
45060;DHT22;30799;49.060;9.312;2022-11-20T06:45:52;21.20;68.20
45060;DHT22;30799;49.060;9.312;2022-11-20T06:48:18;21.20;68.20
45060;DHT22;30799;49.060;9.312;2022-11-20T06:50:45;21.20;68.20
45060;DHT22;30799;49.060;9.312;2022-11-20T06:53:11;21.20;68.20
45060;DHT22;30799;49.060;9.312;2022-11-20T06:55:41;21.20;68.10
45060;DHT22;30799;49.060;9.312;2022-11-20T06:58:08;21.20;68.10
45060;DHT22;30799;49.060;9.312;2022-11-20T07:00:35;21.20;68.10
45060;DHT22;30799;49.060;9.312;2022-11-20T07:03:05;21.20;68.20
45060;DHT22;30799;49.060;9.312;2022-11-20T07:05:32;21.20;68.10
45060;DHT22;30799;49.060;9.312;2022-11-20T07:07:58;21.20;68.10
45060;DHT22;30799;49.060;9.312;2022-11-20T07:10:25;21.20;68.10
45060;DHT22;30799;49.060;9.312;2022-11-20T07:12:52;21.20;68.10
45060;DHT22;30799;49.060;9.312;2022-11-20T07:15:20;21.20;68.10
45060;DHT22;30799;49.060;9.312;2022-11-20T07:17:47;21.20;68.20
45060;DHT22;30799;49.060;9.312;2022-11-20T07:20:13;21.20;68.20
45060;DHT22;30799;49.060;9.312;2022-11-20T07:22:40;21.20;68.20
45060;DHT22;30799;49.060;9.312;2022-11-20T07:25:07;21.20;68.20
45060;DHT22;30799;49.060;9.312;2022-11-20T07:27:34;21.20;68.20
45060;DHT22;30799;49.060;9.312;2022-11-20T07:30:00;21.20;68.10
45060;DHT22;30799;49.060;9.312;2022-11-20T07:32:27;21.20;68.20
45060;DHT22;30799;49.060;9.312;2022-11-20T07:34:53;21.20;68.20
45060;DHT22;30799;49.060;9.312;2022-11-20T07:37:20;20.80;54.50
45060;DHT22;30799;49.060;9.312;2022-11-20T07:39:47;19.00;50.60
45060;DHT22;30799;49.060;9.312;2022-11-20T07:42:15;19.50;56.10
45060;DHT22;30799;49.060;9.312;2022-11-20T07:44:41;20.10;61.50
45060;DHT22;30799;49.060;9.312;2022-11-20T07:47:08;20.50;61.80
45060;DHT22;30799;49.060;9.312;2022-11-20T07:49:35;20.70;62.40
45060;DHT22;30799;49.060;9.312;2022-11-20T07:52:01;20.80;62.70
45060;DHT22;30799;49.060;9.312;2022-11-20T07:54:30;20.90;62.80
45060;DHT22;30799;49.060;9.312;2022-11-20T07:56:57;21.00;63.00
45060;DHT22;30799;49.060;9.312;2022-11-20T07:59:24;21.00;63.10
45060;DHT22;30799;49.060;9.312;2022-11-20T08:01:50;21.00;62.70
45060;DHT22;30799;49.060;9.312;2022-11-20T08:04:17;21.10;61.60
45060;DHT22;30799;49.060;9.312;2022-11-20T08:06:43;21.10;63.40
45060;DHT22;30799;49.060;9.312;2022-11-20T08:09:10;21.20;63.60
45060;DHT22;30799;49.060;9.312;2022-11-20T08:11:36;21.20;63.70
45060;DHT22;30799;49.060;9.312;2022-11-20T08:14:22;21.20;63.80
45060;DHT22;30799;49.060;9.312;2022-11-20T08:16:49;21.20;63.80
45060;DHT22;30799;49.060;9.312;2022-11-20T08:19:16;21.20;60.60
45060;DHT22;30799;49.060;9.312;2022-11-20T08:21:43;21.10;60.70
45060;DHT22;30799;49.060;9.312;2022-11-20T08:24:10;21.20;61.30
45060;DHT22;30799;49.060;9.312;2022-11-20T08:26:37;21.20;62.40
45060;DHT22;30799;49.060;9.312;2022-11-20T08:29:04;21.10;63.10
45060;DHT22;30799;49.060;9.312;2022-11-20T08:31:31;21.10;59.70
45060;DHT22;30799;49.060;9.312;2022-11-20T08:33:58;21.00;61.40
45060;DHT22;30799;49.060;9.312;2022-11-20T08:36:25;21.00;63.20
45060;DHT22;30799;49.060;9.312;2022-11-20T08:38:52;21.00;63.60
45060;DHT22;30799;49.060;9.312;2022-11-20T08:41:19;21.00;63.80
45060;DHT22;30799;49.060;9.312;2022-11-20T08:46:20;21.10;64.00
45060;DHT22;30799;49.060;9.312;2022-11-20T08:48:46;21.10;64.10
45060;DHT22;30799;49.060;9.312;2022-11-20T08:51:13;21.10;64.20
45060;DHT22;30799;49.060;9.312;2022-11-20T08:53:40;21.10;64.30
45060;DHT22;30799;49.060;9.312;2022-11-20T08:56:07;21.10;64.40
45060;DHT22;30799;49.060;9.312;2022-11-20T08:58:34;21.10;64.50
45060;DHT22;30799;49.060;9.312;2022-11-20T09:01:21;21.10;95.50
45060;DHT22;30799;49.060;9.312;2022-11-20T09:03:48;21.30;87.70
45060;DHT22;30799;49.060;9.312;2022-11-20T09:06:15;21.20;84.70
45060;DHT22;30799;49.060;9.312;2022-11-20T09:08:42;21.40;81.30
45060;DHT22;30799;49.060;9.312;2022-11-20T09:11:08;21.30;78.50
45060;DHT22;30799;49.060;9.312;2022-11-20T09:13:35;21.30;79.30
45060;DHT22;30799;49.060;9.312;2022-11-20T09:16:03;21.30;79.00
45060;DHT22;30799;49.060;9.312;2022-11-20T09:18:31;21.20;78.90
45060;DHT22;30799;49.060;9.312;2022-11-20T09:20:59;21.30;79.20
45060;DHT22;30799;49.060;9.312;2022-11-20T09:23:26;21.30;79.10
45060;DHT22;30799;49.060;9.312;2022-11-20T09:25:53;21.30;79.50
45060;DHT22;30799;49.060;9.312;2022-11-20T09:28:22;21.30;80.20
45060;DHT22;30799;49.060;9.312;2022-11-20T09:30:48;21.30;81.00
45060;DHT22;30799;49.060;9.312;2022-11-20T09:33:15;21.30;84.00
45060;DHT22;30799;49.060;9.312;2022-11-20T09:35:42;22.10;82.20
45060;DHT22;30799;49.060;9.312;2022-11-20T09:38:09;21.40;81.10
45060;DHT22;30799;49.060;9.312;2022-11-20T09:40:46;21.40;81.70
45060;DHT22;30799;49.060;9.312;2022-11-20T09:48:55;21.30;79.30
45060;DHT22;30799;49.060;9.312;2022-11-20T09:51:41;21.30;79.60
45060;DHT22;30799;49.060;9.312;2022-11-20T09:54:19;21.30;79.60
45060;DHT22;30799;49.060;9.312;2022-11-20T09:56:48;21.40;79.70
45060;DHT22;30799;49.060;9.312;2022-11-20T10:14:16;21.40;79.80
45060;DHT22;30799;49.060;9.312;2022-11-20T10:16:51;21.40;80.40
45060;DHT22;30799;49.060;9.312;2022-11-20T10:27:29;21.00;79.00
45060;DHT22;30799;49.060;9.312;2022-11-20T10:30:17;21.10;79.10
45060;DHT22;30799;49.060;9.312;2022-11-20T10:32:54;21.20;78.60
45060;DHT22;30799;49.060;9.312;2022-11-20T10:35:38;21.20;78.30
45060;DHT22;30799;49.060;9.312;2022-11-20T10:38:08;21.20;78.40
45060;DHT22;30799;49.060;9.312;2022-11-20T10:43:07;21.30;78.30
45060;DHT22;30799;49.060;9.312;2022-11-20T10:45:52;21.30;79.00
45060;DHT22;30799;49.060;9.312;2022-11-20T10:48:27;21.30;78.70
45060;DHT22;30799;49.060;9.312;2022-11-20T10:51:03;21.30;78.60
45060;DHT22;30799;49.060;9.312;2022-11-20T10:56:17;21.30;78.40
45060;DHT22;30799;49.060;9.312;2022-11-20T11:01:30;21.30;78.60
45060;DHT22;30799;49.060;9.312;2022-11-20T11:03:56;21.00;78.90
45060;DHT22;30799;49.060;9.312;2022-11-20T11:06:36;21.30;79.20
45060;DHT22;30799;49.060;9.312;2022-11-20T11:09:06;21.30;78.90
45060;DHT22;30799;49.060;9.312;2022-11-20T11:11:37;21.30;79.00
45060;DHT22;30799;49.060;9.312;2022-11-20T11:14:09;21.30;79.00
45060;DHT22;30799;49.060;9.312;2022-11-20T11:16:40;21.30;79.00
45060;DHT22;30799;49.060;9.312;2022-11-20T11:19:14;21.30;78.50
45060;DHT22;30799;49.060;9.312;2022-11-20T11:21:48;21.30;79.30
45060;DHT22;30799;49.060;9.312;2022-11-20T11:24:27;21.30;77.90
45060;DHT22;30799;49.060;9.312;2022-11-20T11:27:13;21.30;78.10
45060;DHT22;30799;49.060;9.312;2022-11-20T11:29:43;21.30;77.80
45060;DHT22;30799;49.060;9.312;2022-11-20T11:32:14;21.30;77.90
45060;DHT22;30799;49.060;9.312;2022-11-20T11:34:41;21.10;69.10
45060;DHT22;30799;49.060;9.312;2022-11-20T11:37:18;20.70;64.00
45060;DHT22;30799;49.060;9.312;2022-11-20T11:39:45;20.40;62.00
45060;DHT22;30799;49.060;9.312;2022-11-20T11:42:20;20.40;66.00
45060;DHT22;30799;49.060;9.312;2022-11-20T11:44:47;20.60;68.70
45060;DHT22;30799;49.060;9.312;2022-11-20T11:47:33;20.70;71.30
45060;DHT22;30799;49.060;9.312;2022-11-20T11:50:00;20.90;72.60
45060;DHT22;30799;49.060;9.312;2022-11-20T11:52:27;20.90;72.80
45060;DHT22;30799;49.060;9.312;2022-11-20T11:54:56;21.00;73.00
45060;DHT22;30799;49.060;9.312;2022-11-20T12:07:43;20.40;67.00
45060;DHT22;30799;49.060;9.312;2022-11-20T12:13:00;20.60;68.80
45060;DHT22;30799;49.060;9.312;2022-11-20T12:15:29;20.70;70.10
45060;DHT22;30799;49.060;9.312;2022-11-20T12:17:56;20.70;70.50
45060;DHT22;30799;49.060;9.312;2022-11-20T12:20:24;20.80;70.80
45060;DHT22;30799;49.060;9.312;2022-11-20T12:22:56;20.80;70.40
45060;DHT22;30799;49.060;9.312;2022-11-20T12:25:30;20.80;70.50
45060;DHT22;30799;49.060;9.312;2022-11-20T12:30:26;20.80;70.80
45060;DHT22;30799;49.060;9.312;2022-11-20T12:43:36;21.00;71.60
45060;DHT22;30799;49.060;9.312;2022-11-20T12:48:53;21.00;72.00
45060;DHT22;30799;49.060;9.312;2022-11-20T12:51:34;21.00;72.60
45060;DHT22;30799;49.060;9.312;2022-11-20T12:56:38;20.90;72.90
45060;DHT22;30799;49.060;9.312;2022-11-20T13:02:18;20.90;73.20
45060;DHT22;30799;49.060;9.312;2022-11-20T13:07:25;20.90;73.50
45060;DHT22;30799;49.060;9.312;2022-11-20T13:09:54;20.90;73.80
45060;DHT22;30799;49.060;9.312;2022-11-20T13:20:16;20.90;74.10
45060;DHT22;30799;49.060;9.312;2022-11-20T13:25:10;20.90;74.50
45060;DHT22;30799;49.060;9.312;2022-11-20T13:27:48;20.90;74.50
45060;DHT22;30799;49.060;9.312;2022-11-20T13:30:16;20.90;74.60
45060;DHT22;30799;49.060;9.312;2022-11-20T13:32:50;20.90;74.80
45060;DHT22;30799;49.060;9.312;2022-11-20T13:35:31;20.90;74.70
45060;DHT22;30799;49.060;9.312;2022-11-20T13:38:02;20.90;74.90
45060;DHT22;30799;49.060;9.312;2022-11-20T13:40:29;20.90;75.00
45060;DHT22;30799;49.060;9.312;2022-11-20T13:45:25;20.90;75.10
45060;DHT22;30799;49.060;9.312;2022-11-20T13:47:53;20.90;75.10
45060;DHT22;30799;49.060;9.312;2022-11-20T13:50:21;20.90;75.10
45060;DHT22;30799;49.060;9.312;2022-11-20T14:00:30;20.90;75.30
45060;DHT22;30799;49.060;9.312;2022-11-20T14:05:36;20.90;75.10
45060;DHT22;30799;49.060;9.312;2022-11-20T14:08:04;20.90;75.40
45060;DHT22;30799;49.060;9.312;2022-11-20T14:10:32;20.90;75.60
45060;DHT22;30799;49.060;9.312;2022-11-20T14:12:58;20.90;75.50
45060;DHT22;30799;49.060;9.312;2022-11-20T14:15:35;20.90;75.50
45060;DHT22;30799;49.060;9.312;2022-11-20T14:18:14;20.90;75.70
45060;DHT22;30799;49.060;9.312;2022-11-20T14:20:41;20.90;75.60
45060;DHT22;30799;49.060;9.312;2022-11-20T14:23:09;20.90;76.10
45060;DHT22;30799;49.060;9.312;2022-11-20T14:25:36;20.90;75.70
45060;DHT22;30799;49.060;9.312;2022-11-20T14:28:03;20.90;76.00
45060;DHT22;30799;49.060;9.312;2022-11-20T14:30:43;20.90;75.60
45060;DHT22;30799;49.060;9.312;2022-11-20T14:33:10;20.90;75.70
45060;DHT22;30799;49.060;9.312;2022-11-20T14:35:45;20.90;75.40
45060;DHT22;30799;49.060;9.312;2022-11-20T14:38:13;21.00;75.20
45060;DHT22;30799;49.060;9.312;2022-11-20T14:40:40;21.00;75.50
45060;DHT22;30799;49.060;9.312;2022-11-20T14:43:24;21.10;75.40
45060;DHT22;30799;49.060;9.312;2022-11-20T14:45:54;21.00;75.10
45060;DHT22;30799;49.060;9.312;2022-11-20T14:48:28;21.00;75.50
45060;DHT22;30799;49.060;9.312;2022-11-20T14:50:55;21.00;75.50
45060;DHT22;30799;49.060;9.312;2022-11-20T14:53:22;20.90;75.70
45060;DHT22;30799;49.060;9.312;2022-11-20T14:55:53;20.90;75.90
45060;DHT22;30799;49.060;9.312;2022-11-20T14:58:28;21.00;76.10
45060;DHT22;30799;49.060;9.312;2022-11-20T15:00:56;20.90;76.10
45060;DHT22;30799;49.060;9.312;2022-11-20T15:03:30;20.90;75.90
45060;DHT22;30799;49.060;9.312;2022-11-20T15:05:57;21.00;76.30
45060;DHT22;30799;49.060;9.312;2022-11-20T15:08:23;20.90;76.10
45060;DHT22;30799;49.060;9.312;2022-11-20T15:10:50;20.90;76.20
45060;DHT22;30799;49.060;9.312;2022-11-20T15:13:24;20.90;76.10
45060;DHT22;30799;49.060;9.312;2022-11-20T15:15:53;20.90;76.00
45060;DHT22;30799;49.060;9.312;2022-11-20T15:18:22;20.90;76.30
45060;DHT22;30799;49.060;9.312;2022-11-20T15:20:49;20.90;76.20
45060;DHT22;30799;49.060;9.312;2022-11-20T15:23:16;20.90;76.20
45060;DHT22;30799;49.060;9.312;2022-11-20T15:25:46;20.90;76.20
45060;DHT22;30799;49.060;9.312;2022-11-20T15:30:44;20.90;76.10
45060;DHT22;30799;49.060;9.312;2022-11-20T15:33:11;20.90;76.40
45060;DHT22;30799;49.060;9.312;2022-11-20T15:35:38;21.00;76.70
45060;DHT22;30799;49.060;9.312;2022-11-20T15:38:04;20.90;76.40
45060;DHT22;30799;49.060;9.312;2022-11-20T15:40:31;20.90;76.50
45060;DHT22;30799;49.060;9.312;2022-11-20T15:42:58;20.90;76.40
45060;DHT22;30799;49.060;9.312;2022-11-20T15:48:12;20.90;76.60
45060;DHT22;30799;49.060;9.312;2022-11-20T15:53:18;20.90;76.60
45060;DHT22;30799;49.060;9.312;2022-11-20T15:55:45;20.90;76.90
45060;DHT22;30799;49.060;9.312;2022-11-20T15:58:12;20.90;77.30
45060;DHT22;30799;49.060;9.312;2022-11-20T16:00:38;20.90;76.70
45060;DHT22;30799;49.060;9.312;2022-11-20T16:03:05;20.90;76.80
45060;DHT22;30799;49.060;9.312;2022-11-20T16:05:31;20.90;77.00
45060;DHT22;30799;49.060;9.312;2022-11-20T16:07:58;20.90;76.90
45060;DHT22;30799;49.060;9.312;2022-11-20T16:10:25;20.90;77.50
45060;DHT22;30799;49.060;9.312;2022-11-20T16:12:51;21.00;77.80
45060;DHT22;30799;49.060;9.312;2022-11-20T16:15:36;21.00;77.30
45060;DHT22;30799;49.060;9.312;2022-11-20T16:18:13;21.00;77.10
45060;DHT22;30799;49.060;9.312;2022-11-20T16:20:40;21.00;77.80
45060;DHT22;30799;49.060;9.312;2022-11-20T16:23:06;21.00;77.40
45060;DHT22;30799;49.060;9.312;2022-11-20T16:25:33;20.90;76.80
45060;DHT22;30799;49.060;9.312;2022-11-20T16:28:00;20.90;77.10
45060;DHT22;30799;49.060;9.312;2022-11-20T16:30:27;20.90;77.10
45060;DHT22;30799;49.060;9.312;2022-11-20T16:32:53;20.90;77.40
45060;DHT22;30799;49.060;9.312;2022-11-20T16:35:20;20.90;77.70
45060;DHT22;30799;49.060;9.312;2022-11-20T16:37:46;20.90;77.30
45060;DHT22;30799;49.060;9.312;2022-11-20T16:40:24;20.90;77.30
45060;DHT22;30799;49.060;9.312;2022-11-20T16:42:51;20.90;77.40
45060;DHT22;30799;49.060;9.312;2022-11-20T16:45:17;20.80;77.30
45060;DHT22;30799;49.060;9.312;2022-11-20T16:47:52;20.90;77.40
45060;DHT22;30799;49.060;9.312;2022-11-20T16:50:22;20.80;77.10
45060;DHT22;30799;49.060;9.312;2022-11-20T16:52:49;20.90;76.70
45060;DHT22;30799;49.060;9.312;2022-11-20T16:55:15;20.90;76.80
45060;DHT22;30799;49.060;9.312;2022-11-20T16:57:42;20.80;77.00
45060;DHT22;30799;49.060;9.312;2022-11-20T17:00:09;20.90;77.40
45060;DHT22;30799;49.060;9.312;2022-11-20T17:02:35;20.80;77.10
45060;DHT22;30799;49.060;9.312;2022-11-20T17:05:03;20.80;76.90
45060;DHT22;30799;49.060;9.312;2022-11-20T17:07:30;20.80;76.90
45060;DHT22;30799;49.060;9.312;2022-11-20T17:09:56;20.90;76.90
45060;DHT22;30799;49.060;9.312;2022-11-20T17:12:23;20.50;65.60
45060;DHT22;30799;49.060;9.312;2022-11-20T17:14:49;18.70;59.30
45060;DHT22;30799;49.060;9.312;2022-11-20T17:17:16;18.90;66.30
45060;DHT22;30799;49.060;9.312;2022-11-20T17:19:42;19.40;68.90
45060;DHT22;30799;49.060;9.312;2022-11-20T17:22:09;19.80;70.10
45060;DHT22;30799;49.060;9.312;2022-11-20T17:24:36;20.20;71.10
45060;DHT22;30799;49.060;9.312;2022-11-20T17:27:02;20.20;71.20
45060;DHT22;30799;49.060;9.312;2022-11-20T17:29:29;20.30;71.20
45060;DHT22;30799;49.060;9.312;2022-11-20T17:31:56;20.40;71.40
45060;DHT22;30799;49.060;9.312;2022-11-20T17:34:22;20.40;71.30
45060;DHT22;30799;49.060;9.312;2022-11-20T17:36:50;20.50;71.80
45060;DHT22;30799;49.060;9.312;2022-11-20T17:39:17;20.50;72.70